Time;durP1;ratioP1;P1;durP2;ratioP2;P2;SDS_P1;SDS_P2;PMS_P1;PMS_P2;Temp;Humidity;BMP_temperature;BMP_pressure;BME280_temperature;BME280_humidity;BME280_pressure;Samples;Min_cycle;Max_cycle;Signal;HPM_P1;HPM_P2
2023/03/14 05:40:39;;;;;;;;;;;;;;;0.97;75.86;100548.60;111389;1249;23091;-57
2023/03/14 05:43:13;;;;;;;;;;;;;;;1.04;75.55;100545.27;112950;1249;22496;-47
2023/03/14 05:46:04;;;;;;;;;;;;;;;1.14;75.21;100550.51;112895;1249;23120;-57
2023/03/14 05:48:50;;;;;;;;;;;;;;;1.23;74.48;100547.09;111669;1249;22947;-47
2023/03/14 05:51:49;;;;;;;;;;;;;;;1.32;74.17;100558.49;112762;1250;22350;-57
2023/03/14 05:54:44;;;;;;;;;;;;;;;1.42;74.10;100558.86;112015;1249;23393;-46
2023/03/14 05:57:40;;;;;;;;;;;;;;;1.50;73.73;100560.92;111565;1249;22568;-58
2023/03/14 06:00:10;;;;;;;;;;;;;;;1.59;74.05;100553.71;112913;1249;22461;-56
2023/03/14 06:02:45;;;;;;;;;;;;;;;1.67;73.33;100553.55;112706;1249;22372;-47
2023/03/14 06:05:17;;;;;;;;;;;;;;;1.75;72.86;100558.14;112585;1249;22412;-47
2023/03/14 06:07:46;;;;;;;;;;;;;;;1.82;72.53;100558.08;112312;1250;22581;-56
2023/03/14 06:10:13;;;;;;;;;;;;;;;1.89;72.04;100558.86;112744;1249;23216;-46
2023/03/14 06:12:40;;;;;;;;;;;;;;;1.94;71.87;100569.89;112474;1250;22897;-47
2023/03/14 06:15:08;;;;;;;;;;;;;;;2.01;71.76;100571.17;112633;1249;22524;-47
2023/03/14 06:17:35;;;;;;;;;;;;;;;2.08;71.82;100562.88;112590;1249;22501;-57
2023/03/14 06:20:07;;;;;;;;;;;;;;;2.17;71.76;100562.34;112596;1249;22335;-57
2023/03/14 06:22:33;;;;;;;;;;;;;;;2.26;72.14;100554.45;112474;1250;22384;-57
2023/03/14 06:25:04;;;;;;;;;;;;;;;2.37;71.33;100558.63;112405;1249;228785;-56
2023/03/14 06:27:51;;;;;;;;;;;;;;;2.47;71.33;100555.71;112529;1250;22633;-57
2023/03/14 06:30:18;;;;;;;;;;;;;;;2.55;70.94;100558.95;112425;1249;22576;-46
2023/03/14 06:36:52;;;;;;;;;;;;;;;2.80;70.59;100561.58;112284;1249;22781;-46
2023/03/14 06:47:40;;;;;;;;;;;;;;;3.31;70.04;100559.70;112715;1249;22464;-56
2023/03/14 06:50:23;;;;;;;;;;;;;;;3.36;69.19;100558.66;112672;1249;22401;-46
2023/03/14 06:53:30;;;;;;;;;;;;;;;3.40;70.21;100552.95;112648;1249;22407;-47
2023/03/14 06:56:09;;;;;;;;;;;;;;;3.50;69.72;100549.46;112086;1249;25242;-57
2023/03/14 06:58:40;;;;;;;;;;;;;;;3.55;69.36;100547.20;111975;1245;22532;-47
2023/03/14 07:01:24;;;;;;;;;;;;;;;3.58;69.53;100540.91;112011;1249;23225;-46
2023/03/14 07:03:55;;;;;;;;;;;;;;;3.63;69.30;100547.46;111499;1249;22543;-47
2023/03/14 07:06:23;;;;;;;;;;;;;;;3.68;69.01;100549.69;112094;1249;22494;-57
2023/03/14 07:08:51;;;;;;;;;;;;;;;3.72;69.24;100557.42;111608;1248;22593;-49
2023/03/14 07:11:19;;;;;;;;;;;;;;;3.80;69.50;100544.23;111756;1249;22590;-57
2023/03/14 07:13:47;;;;;;;;;;;;;;;3.89;69.47;100554.65;112110;1249;22464;-46
2023/03/14 07:16:14;;;;;;;;;;;;;;;3.97;69.37;100542.33;112462;1249;23352;-49
2023/03/14 07:18:41;;;;;;;;;;;;;;;4.08;69.12;100544.38;112551;1249;22473;-48
2023/03/14 07:21:14;;;;;;;;;;;;;;;4.15;68.42;100544.58;111785;1249;23224;-46
2023/03/14 07:24:20;;;;;;;;;;;;;;;4.23;68.33;100548.27;111203;1249;23278;-47
2023/03/14 07:26:57;;;;;;;;;;;;;;;4.35;67.88;100542.94;111608;1249;22516;-46
2023/03/14 07:29:29;;;;;;;;;;;;;;;4.44;67.77;100542.69;111224;1249;22719;-55
2023/03/14 07:31:59;;;;;;;;;;;;;;;4.54;67.93;100543.14;111777;1249;22514;-48
2023/03/14 07:34:37;;;;;;;;;;;;;;;4.65;67.48;100534.63;112082;1250;22984;-48
2023/03/14 07:37:08;;;;;;;;;;;;;;;4.74;66.98;100535.58;111674;1248;22615;-56
2023/03/14 07:39:37;;;;;;;;;;;;;;;4.82;67.06;100536.81;112334;1250;23407;-58
2023/03/14 07:42:10;;;;;;;;;;;;;;;4.96;66.94;100529.05;111622;1249;22475;-57
2023/03/14 07:45:24;;;;;;;;;;;;;;;5.14;64.93;100523.64;111528;1249;22504;-56
2023/03/14 07:47:57;;;;;;;;;;;;;;;5.23;63.49;100525.26;111354;1249;23135;-56
2023/03/14 07:50:35;;;;;;;;;;;;;;;5.30;63.03;100534.95;112177;1249;24316;-48
2023/03/14 07:53:05;;;;;;;;;;;;;;;5.40;62.70;100528.09;111216;1250;22479;-56
2023/03/14 07:55:39;;;;;;;;;;;;;;;5.48;61.26;100518.95;111223;1249;23395;-47
2023/03/14 07:58:12;;;;;;;;;;;;;;;5.53;60.04;100521.00;111686;1248;22549;-57
2023/03/14 08:00:48;;;;;;;;;;;;;;;5.65;59.06;100526.63;110893;1249;23620;-49
2023/03/14 08:04:02;;;;;;;;;;;;;;;5.79;59.32;100514.32;112285;1249;22922;-58
2023/03/14 08:06:30;;;;;;;;;;;;;;;5.90;59.73;100504.53;112691;1249;22390;-47
2023/03/14 08:09:19;;;;;;;;;;;;;;;6.00;59.48;100500.13;112475;1249;22916;-57
2023/03/14 08:15:55;;;;;;;;;;;;;;;6.31;57.28;100498.16;112338;1245;22571;-57
2023/03/14 08:18:22;;;;;;;;;;;;;;;6.45;55.40;100497.58;112594;1249;22396;-48
2023/03/14 08:20:50;;;;;;;;;;;;;;;6.52;54.15;100495.11;112342;1249;22518;-57
2023/03/14 08:23:18;;;;;;;;;;;;;;;6.56;54.55;100483.94;112134;1249;22479;-56
2023/03/14 08:25:45;;;;;;;;;;;;;;;6.65;54.06;100489.82;112018;1249;22490;-57
2023/03/14 08:28:12;;;;;;;;;;;;;;;6.77;53.10;100483.30;112373;1249;22465;-57
2023/03/14 08:30:39;;;;;;;;;;;;;;;6.88;51.20;100489.56;112731;1249;22373;-56
2023/03/14 08:33:07;;;;;;;;;;;;;;;7.00;50.85;100474.69;111751;1249;23116;-55
2023/03/14 08:35:34;;;;;;;;;;;;;;;7.13;49.05;100483.41;112351;1249;24676;-57
2023/03/14 08:38:01;;;;;;;;;;;;;;;7.21;48.81;100486.99;112216;1249;24339;-57
2023/03/14 08:40:29;;;;;;;;;;;;;;;7.24;47.99;100484.96;111680;1249;22488;-56
2023/03/14 08:43:00;;;;;;;;;;;;;;;7.26;48.21;100480.84;112362;1249;23231;-46
2023/03/14 08:45:27;;;;;;;;;;;;;;;7.35;49.18;100471.79;112359;1249;23251;-46
2023/03/14 08:47:54;;;;;;;;;;;;;;;7.53;47.79;100478.13;112397;1249;23139;-48
2023/03/14 08:50:20;;;;;;;;;;;;;;;7.68;47.36;100469.70;112052;1249;23271;-58
2023/03/14 08:52:48;;;;;;;;;;;;;;;7.80;46.20;100459.08;111922;1249;22553;-49
2023/03/14 08:55:17;;;;;;;;;;;;;;;7.84;45.49;100454.13;112517;1249;22356;-57
2023/03/14 08:57:45;;;;;;;;;;;;;;;7.87;45.75;100459.02;111877;1249;23540;-56
2023/03/14 09:00:15;;;;;;;;;;;;;;;7.93;45.35;100448.84;112301;1248;22411;-56
2023/03/14 09:02:42;;;;;;;;;;;;;;;8.01;45.34;100448.25;112281;1249;22416;-48
2023/03/14 09:05:10;;;;;;;;;;;;;;;8.10;45.48;100445.92;112493;1249;22456;-50
2023/03/14 09:07:37;;;;;;;;;;;;;;;8.23;42.33;100441.58;112551;1249;23211;-49
2023/03/14 09:10:04;;;;;;;;;;;;;;;8.32;39.46;100443.06;112620;1249;22881;-47
2023/03/14 09:12:37;;;;;;;;;;;;;;;8.33;39.70;100441.68;112479;1249;22382;-48
2023/03/14 09:15:04;;;;;;;;;;;;;;;8.35;38.42;100438.23;112459;1249;23065;-48
2023/03/14 09:17:31;;;;;;;;;;;;;;;8.40;38.29;100431.38;112401;1249;22993;-57
2023/03/14 09:23:14;;;;;;;;;;;;;;;8.65;38.83;100431.81;112426;1249;22413;-47
2023/03/14 09:25:59;;;;;;;;;;;;;;;8.61;39.43;100429.86;112529;1249;22326;-47
2023/03/14 09:28:26;;;;;;;;;;;;;;;8.64;40.73;100419.45;112696;1249;22490;-56
2023/03/14 09:30:58;;;;;;;;;;;;;;;8.81;39.17;100403.45;112762;1249;22871;-56
2023/03/14 09:33:24;;;;;;;;;;;;;;;8.93;38.17;100407.02;112575;1249;22878;-56
2023/03/14 09:35:51;;;;;;;;;;;;;;;8.98;37.39;100416.64;112539;1250;23294;-57
2023/03/14 09:38:20;;;;;;;;;;;;;;;9.00;37.50;100407.77;112786;1249;22493;-48
2023/03/14 09:40:47;;;;;;;;;;;;;;;9.02;37.91;100407.79;112413;1249;23844;-47
2023/03/14 09:43:14;;;;;;;;;;;;;;;9.05;37.49;100399.64;112453;1247;23432;-47
2023/03/14 09:45:42;;;;;;;;;;;;;;;9.11;37.98;100398.12;112308;1249;22808;-57
2023/03/14 09:48:22;;;;;;;;;;;;;;;9.16;37.10;100385.63;112546;1249;22486;-48
2023/03/14 09:50:54;;;;;;;;;;;;;;;9.21;36.41;100380.95;112477;1249;22653;-57
2023/03/14 09:53:27;;;;;;;;;;;;;;;9.26;35.73;100365.67;111624;1249;22486;-47
2023/03/14 09:55:55;;;;;;;;;;;;;;;9.30;35.70;100365.36;112455;1249;22516;-48
2023/03/14 09:58:22;;;;;;;;;;;;;;;9.33;35.68;100374.95;112699;1249;23259;-47
2023/03/14 10:00:49;;;;;;;;;;;;;;;9.38;34.89;100368.36;112648;1249;22359;-57
2023/03/14 10:03:35;;;;;;;;;;;;;;;9.42;34.42;100363.69;111684;1249;25358;-56
2023/03/14 10:06:09;;;;;;;;;;;;;;;9.38;33.41;100363.83;112195;1249;22609;-46
2023/03/14 10:08:39;;;;;;;;;;;;;;;9.31;32.83;100349.52;112592;1249;23221;-57
2023/03/14 10:11:09;;;;;;;;;;;;;;;9.27;33.40;100351.41;112064;1249;22471;-56
2023/03/14 10:13:39;;;;;;;;;;;;;;;9.31;34.00;100339.60;112528;1249;22480;-56
2023/03/14 10:16:06;;;;;;;;;;;;;;;9.42;34.50;100334.79;111873;1249;22562;-58
2023/03/14 10:18:44;;;;;;;;;;;;;;;9.54;34.50;100336.59;111857;1250;22564;-48
2023/03/14 10:21:11;;;;;;;;;;;;;;;9.72;33.96;100312.47;112629;1249;22463;-57
2023/03/14 10:23:38;;;;;;;;;;;;;;;9.97;33.19;100305.23;112633;1249;22400;-57
2023/03/14 10:26:06;;;;;;;;;;;;;;;10.26;32.69;100309.32;112489;1249;22401;-56
2023/03/14 10:28:40;;;;;;;;;;;;;;;10.56;32.68;100304.30;112663;1249;22390;-47
2023/03/14 10:31:07;;;;;;;;;;;;;;;10.95;32.55;100296.95;112331;1249;25224;-47
2023/03/14 10:34:24;;;;;;;;;;;;;;;11.40;31.53;100277.97;111823;1249;22553;-56
2023/03/14 10:37:20;;;;;;;;;;;;;;;11.78;29.73;100272.05;111733;1256;22758;-55
2023/03/14 10:40:19;;;;;;;;;;;;;;;12.17;30.26;100265.72;111774;1256;22464;-55
2023/03/14 10:43:28;;;;;;;;;;;;;;;12.52;28.62;100258.10;111712;1256;23663;-46
2023/03/14 10:47:02;;;;;;;;;;;;;;;12.51;27.65;100263.01;111822;1256;22465;-46
2023/03/14 10:53:33;;;;;;;;;;;;;;;12.72;28.97;100236.39;111795;1248;22447;-57
2023/03/14 10:56:36;;;;;;;;;;;;;;;13.00;28.24;100241.00;111424;1248;22932;-55
2023/03/14 10:59:21;;;;;;;;;;;;;;;13.31;26.87;100243.14;111878;1256;22392;-57
2023/03/14 11:02:25;;;;;;;;;;;;;;;13.60;25.54;100246.46;111952;1255;22408;-57
2023/03/14 11:05:08;;;;;;;;;;;;;;;13.83;26.28;100245.09;111854;1256;23099;-47
2023/03/14 11:07:38;;;;;;;;;;;;;;;14.00;25.57;100239.58;111741;1256;22458;-48
2023/03/14 11:10:24;;;;;;;;;;;;;;;14.03;25.78;100222.36;111867;1255;22424;-46
2023/03/14 11:12:53;;;;;;;;;;;;;;;14.00;25.61;100216.61;112113;1250;22888;-46
2023/03/14 11:15:24;;;;;;;;;;;;;;;14.02;24.90;100224.46;112721;1249;22400;-46
2023/03/14 11:18:00;;;;;;;;;;;;;;;14.07;25.53;100215.10;112656;1249;22522;-45
2023/03/14 11:20:49;;;;;;;;;;;;;;;14.25;25.85;100210.96;112588;1249;22937;-55
2023/03/14 11:23:17;;;;;;;;;;;;;;;14.50;25.22;100202.48;112656;1249;22440;-45
2023/03/14 11:26:00;;;;;;;;;;;;;;;14.60;24.61;100191.62;112644;1249;23139;-48
2023/03/14 11:28:37;;;;;;;;;;;;;;;14.69;24.34;100192.33;112637;1249;22413;-55
2023/03/14 11:31:17;;;;;;;;;;;;;;;14.85;24.44;100182.89;112747;1249;22345;-55
2023/03/14 11:33:48;;;;;;;;;;;;;;;14.97;24.32;100184.77;112776;1249;23143;-54
